createdAt,value
2019-05-15T00:01:20.050Z,95192.63
2019-05-15T00:03:49.093Z,95184.23
2019-05-15T00:06:15.039Z,95185.84
2019-05-15T00:08:41.629Z,95184.46
2019-05-15T00:11:08.519Z,95179.53
2019-05-15T00:13:35.088Z,95175.56
2019-05-15T00:16:01.676Z,95173.61
2019-05-15T00:18:28.307Z,95168.77
2019-05-15T00:20:54.869Z,95169.39
2019-05-15T00:23:21.420Z,95168.95
2019-05-15T00:25:48.734Z,95169.23
2019-05-15T00:28:15.549Z,95166.31
2019-05-15T00:30:42.132Z,95167.91
2019-05-15T00:33:09.264Z,95158.33
2019-05-15T00:35:36.102Z,95148.31
2019-05-15T00:38:24.525Z,95158.28
2019-05-15T00:40:51.058Z,95155.98
2019-05-15T00:43:18.293Z,95151.80
2019-05-15T00:45:44.960Z,95153.34
2019-05-15T00:48:11.493Z,95146.30
2019-05-15T00:50:39.297Z,95143.45
2019-05-15T00:53:08.649Z,95134.84
2019-05-15T00:55:37.976Z,95132.59
2019-05-15T00:58:04.628Z,95127.41
2019-05-15T01:00:42.720Z,95130.23
2019-05-15T01:03:09.461Z,95124.13
2019-05-15T01:05:35.982Z,95120.59
2019-05-15T01:08:02.553Z,95111.35
2019-05-15T01:10:29.078Z,95113.98
2019-05-15T01:12:55.613Z,95112.45
2019-05-15T01:15:22.154Z,95109.75
2019-05-15T01:17:49.199Z,95111.20
2019-05-15T01:20:16.155Z,95103.25
2019-05-15T01:22:42.696Z,95101.54
2019-05-15T01:25:09.265Z,95098.90
2019-05-15T01:27:38.286Z,95095.48
2019-05-15T01:30:08.677Z,95097.91
2019-05-15T01:32:34.584Z,95093.25
2019-05-15T01:35:01.259Z,95089.37
2019-05-15T01:37:28.224Z,95087.96
2019-05-15T01:39:54.859Z,95086.46
2019-05-15T01:42:21.486Z,95088.45
2019-05-15T01:44:48.504Z,95084.64
2019-05-15T01:47:15.176Z,95087.29
2019-05-15T01:49:41.696Z,95082.34
2019-05-15T01:52:08.239Z,95082.88
2019-05-15T01:54:34.772Z,95081.07
2019-05-15T01:57:01.315Z,95071.92
2019-05-15T01:59:28.403Z,95075.19
2019-05-15T02:01:55.074Z,95075.68
2019-05-15T02:04:21.604Z,95076.64
2019-05-15T02:06:48.415Z,95082.91
2019-05-15T02:09:15.209Z,95074.22
2019-05-15T02:11:41.736Z,95074.59
2019-05-15T02:14:08.481Z,95072.23
2019-05-15T02:16:35.017Z,95073.05
2019-05-15T02:19:01.761Z,95071.86
2019-05-15T02:21:28.874Z,95076.31
2019-05-15T02:23:55.860Z,95066.86
2019-05-15T02:26:22.386Z,95066.47
2019-05-15T02:28:49.007Z,95067.42
2019-05-15T02:31:19.228Z,95071.75
2019-05-15T02:33:44.037Z,95068.06
2019-05-15T02:36:10.561Z,95066.38
2019-05-15T02:38:40.384Z,95066.33
2019-05-15T02:41:05.533Z,95066.33
2019-05-15T02:43:32.058Z,95062.91
2019-05-15T02:46:00.422Z,95062.70
2019-05-15T02:48:29.099Z,95057.64
2019-05-15T02:50:58.653Z,95059.66
2019-05-15T02:53:24.315Z,95062.02
2019-05-15T02:55:50.847Z,95059.94
2019-05-15T02:58:21.503Z,95062.98
2019-05-15T03:00:49.613Z,95061.88
2019-05-15T03:03:14.330Z,95057.28
2019-05-15T03:05:41.252Z,95060.75
2019-05-15T03:08:09.561Z,95058.54
2019-05-15T03:10:39.949Z,95058.54
2019-05-15T03:13:05.079Z,95050.56
2019-05-15T03:15:31.617Z,95060.69
2019-05-15T03:18:00.481Z,95056.11
2019-05-15T03:20:29.832Z,95046.02
2019-05-15T03:22:59.518Z,95049.15
2019-05-15T03:25:24.618Z,95043.80
2019-05-15T03:27:51.159Z,95043.19
2019-05-15T03:30:21.912Z,95042.48
2019-05-15T03:32:53.935Z,95043.03
2019-05-15T03:35:15.747Z,95045.57
2019-05-15T03:37:42.504Z,95043.36
2019-05-15T03:40:10.349Z,95039.06
2019-05-15T03:42:39.453Z,95040.50
2019-05-15T03:45:10.193Z,95042.08
2019-05-15T03:47:35.589Z,95043.56
2019-05-15T03:50:03.940Z,95044.17
2019-05-15T03:52:30.459Z,95052.90
2019-05-15T03:54:58.837Z,95052.61
2019-05-15T03:57:25.421Z,95040.15
2019-05-15T03:59:51.967Z,95050.45
2019-05-15T04:02:19.446Z,95035.11
2019-05-15T04:04:49.793Z,95046.37
2019-05-15T04:07:14.728Z,95049.94
2019-05-15T04:09:41.265Z,95046.39
2019-05-15T04:12:09.519Z,95037.10
2019-05-15T04:14:39.260Z,95035.73
2019-05-15T04:17:04.671Z,95036.28
2019-05-15T04:19:31.205Z,95036.78
2019-05-15T04:21:59.953Z,95043.03
2019-05-15T04:24:30.107Z,95034.84
2019-05-15T04:26:59.874Z,95039.78
2019-05-15T04:29:28.917Z,95037.91
2019-05-15T04:32:00.998Z,95032.70
2019-05-15T04:34:23.431Z,95029.50
2019-05-15T04:36:50.054Z,95031.66
2019-05-15T04:39:19.375Z,95032.27
2019-05-15T04:41:45.055Z,95032.57
2019-05-15T04:44:11.585Z,95032.42
2019-05-15T04:46:39.180Z,95033.61
2019-05-15T04:49:09.029Z,95034.38
2019-05-15T04:51:34.429Z,95035.81
2019-05-15T04:54:00.967Z,95034.16
2019-05-15T04:56:29.291Z,95039.42
2019-05-15T04:58:59.709Z,95040.73
2019-05-15T05:01:24.655Z,95038.20
2019-05-15T05:03:51.210Z,95042.01
2019-05-15T05:06:19.032Z,95041.64
2019-05-15T05:08:48.854Z,95044.41
2019-05-15T05:11:14.432Z,95042.67
2019-05-15T05:13:40.969Z,95043.45
2019-05-15T05:16:09.468Z,95043.80
2019-05-15T05:18:40.456Z,95046.73
2019-05-15T05:21:04.490Z,95048.45
2019-05-15T05:23:31.012Z,95049.16
2019-05-15T05:25:58.156Z,95050.27
2019-05-15T05:28:24.920Z,95046.98
2019-05-15T05:30:51.521Z,95049.84
2019-05-15T05:33:18.507Z,95054.84
2019-05-15T05:35:45.385Z,95053.30
2019-05-15T05:38:11.906Z,95051.67
2019-05-15T05:40:38.622Z,95055.56
2019-05-15T05:47:20.852Z,95056.36
2019-05-15T05:49:48.859Z,95048.10
2019-05-15T05:52:15.740Z,95051.12
2019-05-15T05:54:42.372Z,95054.63
2019-05-15T05:57:09.222Z,95048.09
2019-05-15T05:59:35.833Z,95045.25
2019-05-15T06:02:02.484Z,95047.28
2019-05-15T06:04:29.018Z,95056.24
2019-05-15T06:07:07.213Z,95059.67
2019-05-15T06:09:24.248Z,95054.52
2019-05-15T06:11:50.786Z,95050.70
2019-05-15T06:14:18.373Z,95046.73
2019-05-15T06:16:45.182Z,95054.80
2019-05-15T06:19:11.708Z,95055.61
2019-05-15T06:21:53.404Z,95056.00
2019-05-15T06:24:12.932Z,95055.80
2019-05-15T06:26:35.254Z,95054.17
2019-05-15T06:29:01.816Z,95051.38
2019-05-15T06:31:28.413Z,95052.27
2019-05-15T06:33:55.026Z,95050.25
2019-05-15T06:36:21.560Z,95052.72
2019-05-15T06:38:48.499Z,95044.42
2019-05-15T06:41:15.168Z,95047.95
2019-05-15T06:43:41.784Z,95052.00
2019-05-15T06:46:09.134Z,95046.16
2019-05-15T06:48:37.946Z,95044.94
2019-05-15T06:51:04.386Z,95051.70
2019-05-15T06:53:31.587Z,95048.37
2019-05-15T06:55:58.586Z,95049.48
2019-05-15T06:58:25.429Z,95045.05
2019-05-15T07:00:51.920Z,95045.58
2019-05-15T07:03:25.281Z,95051.45
2019-05-15T07:05:50.322Z,95049.82
2019-05-15T07:08:18.129Z,95043.77
2019-05-15T07:10:54.945Z,95040.78
2019-05-15T07:13:21.481Z,95045.83
2019-05-15T07:15:49.446Z,95042.88
2019-05-15T07:18:19.370Z,95040.09
2019-05-15T07:20:45.520Z,95046.43
2019-05-15T07:23:12.615Z,95046.43
2019-05-15T07:25:39.289Z,95044.25
2019-05-15T07:28:05.830Z,95040.41
2019-05-15T07:30:32.954Z,95040.66
2019-05-15T07:32:59.495Z,95045.00
2019-05-15T07:35:28.646Z,95032.06
2019-05-15T07:37:54.465Z,95045.33
2019-05-15T07:40:21.702Z,95037.88
2019-05-15T07:42:49.049Z,95042.29
2019-05-15T07:45:19.583Z,95033.46
2019-05-15T07:47:44.789Z,95035.44
2019-05-15T07:50:12.907Z,95047.28
2019-05-15T07:52:39.793Z,95041.03
2019-05-15T07:55:08.715Z,95040.16
2019-05-15T07:57:38.903Z,95040.64
2019-05-15T08:00:10.544Z,95046.48
2019-05-15T08:02:38.192Z,95042.67
2019-05-15T08:05:08.377Z,95038.01
2019-05-15T08:07:35.823Z,95039.03
2019-05-15T08:10:05.384Z,95038.45
2019-05-15T08:12:32.007Z,95038.35
2019-05-15T08:14:58.594Z,95034.30
2019-05-15T08:17:25.124Z,95037.81
2019-05-15T08:19:51.648Z,95020.59
2019-05-15T08:22:18.357Z,95026.70
2019-05-15T08:24:45.005Z,95026.55
2019-05-15T08:27:11.539Z,95024.74
2019-05-15T08:29:38.383Z,95030.06
2019-05-15T08:32:05.025Z,95030.03
2019-05-15T08:34:31.526Z,95034.52
2019-05-15T08:36:59.055Z,95028.09
2019-05-15T08:39:28.342Z,95023.58
2019-05-15T08:41:54.260Z,95022.03
2019-05-15T08:44:20.856Z,95027.08
2019-05-15T08:46:48.030Z,95017.00
2019-05-15T08:49:14.704Z,95016.11
2019-05-15T08:51:41.230Z,95020.91
2019-05-15T08:54:08.569Z,95014.45
2019-05-15T08:56:35.270Z,95011.77
2019-05-15T08:59:01.800Z,95012.32
2019-05-15T09:01:28.870Z,95018.63
2019-05-15T09:03:55.396Z,95011.28
2019-05-15T09:06:23.152Z,95013.63
2019-05-15T09:08:50.056Z,95007.85
2019-05-15T09:11:19.025Z,94991.96
2019-05-15T09:13:45.179Z,94992.63
2019-05-15T09:16:11.704Z,94988.59
2019-05-15T09:18:39.105Z,94994.95
2019-05-15T09:21:08.561Z,94993.69
2019-05-15T09:23:34.395Z,94990.22
2019-05-15T09:26:00.923Z,94981.21
2019-05-15T09:28:29.577Z,94981.52
2019-05-15T09:30:55.881Z,94983.99
2019-05-15T09:33:22.446Z,94983.17
2019-05-15T09:35:49.387Z,94981.93
2019-05-15T09:38:18.440Z,94978.59
2019-05-15T09:40:46.650Z,94988.24
2019-05-15T09:43:12.969Z,94981.53
2019-05-15T09:45:39.501Z,94972.75
2019-05-15T09:48:09.461Z,94969.08
2019-05-15T09:50:34.628Z,94973.08
2019-05-15T09:53:01.153Z,94975.25
2019-05-15T09:55:28.511Z,94967.89
2019-05-15T09:57:55.242Z,94962.46
2019-05-15T10:00:22.668Z,94965.38
2019-05-15T10:02:49.198Z,94974.22
2019-05-15T10:05:16.020Z,94964.77
2019-05-15T10:07:44.445Z,94974.61
2019-05-15T10:10:11.528Z,94974.41
2019-05-15T10:12:38.628Z,94963.78
2019-05-15T10:15:11.133Z,94967.04
2019-05-15T10:17:36.104Z,94962.39
2019-05-15T10:20:09.074Z,94953.91
2019-05-15T10:22:35.193Z,94961.94
2019-05-15T10:25:08.146Z,94951.31
2019-05-15T10:27:34.261Z,94962.87
2019-05-15T10:30:00.794Z,94954.11
2019-05-15T10:32:28.980Z,94952.02
2019-05-15T10:34:55.728Z,94944.82
2019-05-15T10:37:22.248Z,94940.37
2019-05-15T10:39:52.503Z,94932.41
2019-05-15T10:42:19.355Z,94933.59
2019-05-15T10:44:45.776Z,94945.02
2019-05-15T10:47:12.310Z,94933.09
2019-05-15T10:49:39.099Z,94939.37
2019-05-15T10:52:05.771Z,94944.36
2019-05-15T10:54:32.294Z,94937.04
2019-05-15T10:57:00.816Z,94935.11
2019-05-15T10:59:27.696Z,94928.94
2019-05-15T11:01:54.293Z,94921.97
2019-05-15T11:04:20.807Z,94921.27
2019-05-15T11:06:49.091Z,94918.04
2019-05-15T11:09:15.812Z,94913.73
2019-05-15T11:11:42.343Z,94904.79
2019-05-15T11:14:09.339Z,94905.12
2019-05-15T11:16:38.871Z,94906.14
2019-05-15T11:19:04.846Z,94895.91
2019-05-15T11:21:31.383Z,94902.44
2019-05-15T11:23:59.018Z,94903.66
2019-05-15T11:26:33.189Z,94903.31
2019-05-15T11:28:54.304Z,94894.52
2019-05-15T11:31:20.846Z,94900.15
2019-05-15T11:33:49.304Z,94891.47
2019-05-15T11:36:18.355Z,94896.05
2019-05-15T11:38:44.251Z,94893.28
2019-05-15T11:41:10.786Z,94892.16
2019-05-15T11:43:38.621Z,94894.10
2019-05-15T11:46:05.543Z,94891.09
2019-05-15T11:48:32.071Z,94881.17
2019-05-15T11:50:58.648Z,94878.67
2019-05-15T11:53:25.192Z,94879.34
2019-05-15T11:55:51.730Z,94881.09
2019-05-15T11:58:19.156Z,94876.25
2019-05-15T12:00:46.207Z,94880.58
2019-05-15T12:03:12.844Z,94879.69
2019-05-15T12:05:39.429Z,94873.62
2019-05-15T12:08:05.970Z,94867.47
2019-05-15T12:10:32.523Z,94875.22
2019-05-15T12:12:59.071Z,94875.98
2019-05-15T12:15:27.968Z,94882.89
2019-05-15T12:17:54.658Z,94871.16
2019-05-15T12:20:21.414Z,94869.59
2019-05-15T12:22:48.649Z,94864.97
2019-05-15T12:25:15.683Z,94870.70
2019-05-15T12:27:42.241Z,94867.22
2019-05-15T12:30:11.294Z,94869.03
2019-05-15T12:32:40.421Z,94874.51
2019-05-15T12:35:07.962Z,94863.93
2019-05-15T12:37:34.521Z,94856.75
2019-05-15T12:59:50.588Z,94854.06
2019-05-15T13:02:18.737Z,94853.12
2019-05-15T13:04:45.355Z,94847.72
2019-05-15T13:07:16.397Z,94849.44
2019-05-15T13:09:40.386Z,94853.84
2019-05-15T13:12:08.519Z,94861.22
2019-05-15T13:14:35.247Z,94852.89
2019-05-15T13:17:01.775Z,94843.55
2019-05-15T13:19:28.685Z,94839.41
2019-05-15T13:21:55.303Z,94839.25
2019-05-15T13:24:21.845Z,94845.66
2019-05-15T13:26:48.369Z,94841.10
2019-05-15T13:29:14.918Z,94840.59
2019-05-15T13:31:41.506Z,94838.63
2019-05-15T13:34:08.271Z,94838.75
2019-05-15T13:36:34.844Z,94835.82
2019-05-15T13:39:01.375Z,94831.87
2019-05-15T13:41:28.362Z,94830.20
2019-05-15T13:43:55.042Z,94830.78
2019-05-15T13:46:21.568Z,94834.44
2019-05-15T13:48:49.053Z,94830.66
2019-05-15T13:51:18.067Z,94827.84
2019-05-15T13:53:44.331Z,94831.30
2019-05-15T13:56:10.857Z,94827.39
2019-05-15T13:58:38.853Z,94822.66
2019-05-15T14:01:05.755Z,94828.14
2019-05-15T14:03:32.297Z,94827.73
2019-05-15T14:05:58.822Z,94826.88
2019-05-15T14:08:25.436Z,94817.95
2019-05-15T14:10:51.981Z,94819.42
2019-05-15T14:13:18.947Z,94818.81
2019-05-15T14:15:45.637Z,94806.16
2019-05-15T14:18:14.116Z,94811.23
2019-05-15T14:20:40.785Z,94819.89
2019-05-15T14:23:08.704Z,94812.42
2019-05-15T14:25:35.445Z,94809.28
2019-05-15T14:28:03.098Z,94809.82
2019-05-15T14:30:29.634Z,94813.64
2019-05-15T14:32:58.986Z,94814.24
2019-05-15T14:35:24.598Z,94818.16
2019-05-15T14:38:02.641Z,94814.04
2019-05-15T14:40:20.939Z,94811.02
2019-05-15T14:42:48.548Z,94802.00
2019-05-15T14:45:15.619Z,94802.28
2019-05-15T14:47:42.350Z,94787.86
2019-05-15T14:50:10.288Z,94798.20
2019-05-15T14:52:38.551Z,94800.00
2019-05-15T14:55:06.468Z,94799.75
2019-05-15T14:57:33.000Z,94797.91
2019-05-15T14:59:59.568Z,94804.59
2019-05-15T15:02:26.112Z,94800.13
2019-05-15T15:04:52.673Z,94797.36
2019-05-15T15:07:21.758Z,94799.89
2019-05-15T15:09:48.364Z,94791.33
2019-05-15T15:12:14.917Z,94793.01
2019-05-15T15:14:41.455Z,94787.35
2019-05-15T15:17:08.870Z,94780.77
2019-05-15T15:19:38.675Z,94786.86
2019-05-15T15:22:08.701Z,94794.19
2019-05-15T15:24:35.495Z,94791.86
2019-05-15T15:27:02.044Z,94791.47
2019-05-15T15:29:28.883Z,94793.94
2019-05-15T15:31:55.441Z,94796.34
2019-05-15T15:34:21.985Z,94793.19
2019-05-15T15:36:48.541Z,94790.20
2019-05-15T15:39:15.121Z,94787.84
2019-05-15T15:41:41.653Z,94791.34
2019-05-15T15:44:08.791Z,94794.72
2019-05-15T15:46:35.531Z,94793.78
2019-05-15T15:49:03.079Z,94796.37
2019-05-15T15:51:29.608Z,94796.48
2019-05-15T15:53:56.134Z,94799.00
2019-05-15T15:56:22.726Z,94798.27
2019-05-15T15:58:49.245Z,94803.30
2019-05-15T16:01:18.361Z,94805.67
2019-05-15T16:03:44.311Z,94797.69
2019-05-15T16:06:10.821Z,94801.66
2019-05-15T16:08:51.213Z,94794.86
2019-05-15T16:11:08.852Z,94791.47
2019-05-15T16:13:35.382Z,94791.82
2019-05-15T16:16:02.914Z,94796.59
2019-05-15T16:18:29.457Z,94793.34
2019-05-15T16:20:57.950Z,94787.84
2019-05-15T16:23:24.432Z,94791.80
2019-05-15T16:25:50.963Z,94791.41
2019-05-15T16:28:18.487Z,94796.78
2019-05-15T16:30:51.162Z,94790.78
2019-05-15T16:33:13.671Z,94789.15
2019-05-15T16:35:40.237Z,94789.31
2019-05-15T16:38:08.980Z,94792.25
2019-05-15T16:40:35.207Z,94787.30
2019-05-15T16:43:01.741Z,94783.81
2019-05-15T16:45:28.946Z,94789.20
2019-05-15T16:47:55.641Z,94790.91
2019-05-15T16:50:22.173Z,94787.74
2019-05-15T16:52:49.174Z,94787.91
2019-05-15T16:55:15.881Z,94790.63
2019-05-15T16:57:42.405Z,94796.71
2019-05-15T17:00:10.242Z,94786.78
2019-05-15T17:02:39.153Z,94790.34
2019-05-15T17:05:07.884Z,94788.56
2019-05-15T17:07:34.439Z,94789.08
2019-05-15T17:10:00.961Z,94782.87
2019-05-15T17:12:27.904Z,94780.19
2019-05-15T17:14:54.488Z,94779.04
2019-05-15T17:17:21.023Z,94779.65
2019-05-15T17:19:48.495Z,94782.94
2019-05-15T17:22:15.129Z,94771.60
2019-05-15T17:24:41.850Z,94778.13
2019-05-15T17:27:12.071Z,94772.09
2019-05-15T17:29:38.519Z,94769.42
2019-05-15T17:32:05.248Z,94773.09
2019-05-15T17:34:31.800Z,94770.97
2019-05-15T17:36:58.459Z,94771.25
2019-05-15T17:39:34.734Z,94767.52
2019-05-15T17:41:53.408Z,94775.64
2019-05-15T17:44:20.334Z,94775.28
2019-05-15T17:46:48.971Z,94771.70
2019-05-15T17:49:15.716Z,94773.97
2019-05-15T17:51:42.491Z,94774.80
2019-05-15T17:54:09.030Z,94780.05
2019-05-15T17:56:35.572Z,94772.84
2019-05-15T17:59:02.090Z,94780.87
2019-05-15T18:01:28.630Z,94782.16
2019-05-15T18:03:55.156Z,94784.73
2019-05-15T18:06:21.693Z,94788.13
2019-05-15T18:08:48.689Z,94783.05
2019-05-15T18:11:15.414Z,94785.81
2019-05-15T18:13:41.966Z,94787.23
2019-05-15T18:16:13.332Z,94791.45
2019-05-15T18:18:38.390Z,94788.59
2019-05-15T18:21:05.216Z,94783.98
2019-05-15T18:23:31.809Z,94780.54
2019-05-15T18:25:58.611Z,94780.29
2019-05-15T18:28:25.307Z,94780.50
2019-05-15T18:30:51.845Z,94786.45
2019-05-15T18:33:18.641Z,94784.19
2019-05-15T18:35:45.430Z,94774.71
2019-05-15T18:38:11.954Z,94783.27
2019-05-15T18:40:38.617Z,94781.58
2019-05-15T18:43:05.281Z,94784.69
2019-05-15T18:45:32.145Z,94784.48
2019-05-15T18:47:58.972Z,94779.73
2019-05-15T18:50:25.615Z,94786.63
2019-05-15T18:52:52.950Z,94785.08
2019-05-15T18:55:19.718Z,94783.63
2019-05-15T18:57:48.479Z,94783.48
2019-05-15T19:00:18.406Z,94783.28
2019-05-15T19:02:45.245Z,94782.66
2019-05-15T19:05:12.305Z,94785.20
2019-05-15T19:07:38.880Z,94782.45
2019-05-15T19:10:07.974Z,94785.67
2019-05-15T19:12:34.528Z,94782.50
2019-05-15T19:15:01.258Z,94788.02
2019-05-15T19:17:30.237Z,94781.37
2019-05-15T19:19:58.599Z,94782.38
2019-05-15T19:22:24.934Z,94782.42
2019-05-15T19:24:51.790Z,94784.22
2019-05-15T19:27:18.822Z,94778.55
2019-05-15T19:29:45.686Z,94782.89
2019-05-15T19:32:12.287Z,94786.38
2019-05-15T19:34:38.890Z,94786.09
2019-05-15T19:37:05.463Z,94788.06
2019-05-15T19:39:32.060Z,94783.87
2019-05-15T19:41:58.633Z,94788.84
2019-05-15T19:44:25.207Z,94787.55
2019-05-15T19:46:52.088Z,94787.20
2019-05-15T19:49:18.804Z,94789.19
2019-05-15T19:51:45.364Z,94786.34
2019-05-15T19:54:11.983Z,94783.02
2019-05-15T19:56:38.498Z,94789.89
2019-05-15T19:59:05.041Z,94782.68
2019-05-15T20:01:31.648Z,94790.34
2019-05-15T20:03:58.643Z,94793.29
2019-05-15T20:06:25.546Z,94794.62
2019-05-15T20:08:53.985Z,94789.27
2019-05-15T20:11:20.539Z,94791.33
2019-05-15T20:13:48.857Z,94786.16
2019-05-15T20:16:18.323Z,94790.08
2019-05-15T20:18:44.078Z,94787.74
2019-05-15T20:21:10.599Z,94781.06
2019-05-15T20:23:38.198Z,94785.08
2019-05-15T20:26:05.058Z,94782.73
2019-05-15T20:28:31.997Z,94780.13
2019-05-15T20:30:58.820Z,94775.88
2019-05-15T20:33:28.412Z,94776.22
2019-05-15T20:35:54.542Z,94773.55
2019-05-15T20:38:21.079Z,94773.63
2019-05-15T20:40:48.602Z,94771.81
2019-05-15T20:43:15.555Z,94771.02
2019-05-15T20:45:42.145Z,94767.70
2019-05-15T20:48:09.038Z,94768.73
2019-05-15T20:50:35.817Z,94774.55
2019-05-15T20:53:02.460Z,94772.25
2019-05-15T20:55:29.024Z,94769.41
2019-05-15T20:57:55.590Z,94774.39
2019-05-15T21:00:22.436Z,94778.03
2019-05-15T21:02:48.965Z,94778.69
2019-05-15T21:05:15.575Z,94778.88
2019-05-15T21:07:43.248Z,94782.03
2019-05-15T21:10:11.585Z,94778.05
2019-05-15T21:12:40.876Z,94774.05
2019-05-15T21:15:08.549Z,94775.88
2019-05-15T21:17:39.894Z,94772.55
2019-05-15T21:20:09.026Z,94766.25
2019-05-15T21:22:35.136Z,94764.27
2019-05-15T21:25:02.405Z,94763.42
2019-05-15T21:27:33.008Z,94755.97
2019-05-15T21:29:59.177Z,94754.31
2019-05-15T21:32:28.098Z,94749.67
2019-05-15T21:34:54.440Z,94748.16
2019-05-15T21:37:20.971Z,94745.49
2019-05-15T21:39:48.553Z,94744.34
2019-05-15T21:42:15.272Z,94750.45
2019-05-15T21:44:41.845Z,94746.50
2019-05-15T21:47:08.383Z,94750.80
2019-05-15T21:49:34.956Z,94751.63
2019-05-15T21:52:01.800Z,94745.82
2019-05-15T21:54:28.372Z,94742.50
2019-05-15T21:57:06.832Z,94743.83
2019-05-15T21:59:23.353Z,94736.16
2019-05-15T22:01:50.192Z,94734.05
2019-05-15T22:04:16.762Z,94730.54
2019-05-15T22:06:43.301Z,94729.15
2019-05-15T22:09:11.784Z,94719.23
2019-05-15T22:11:39.564Z,94714.90
2019-05-15T22:14:08.068Z,94710.89
2019-05-15T22:16:35.178Z,94705.91
2019-05-15T22:19:01.749Z,94709.06
2019-05-15T22:21:28.291Z,94703.73
2019-05-15T22:23:55.179Z,94702.58
2019-05-15T22:26:21.854Z,94700.08
2019-05-15T22:28:48.945Z,94696.95
2019-05-15T22:31:15.876Z,94696.60
2019-05-15T22:33:42.460Z,94682.85
2019-05-15T22:36:09.297Z,94683.31
2019-05-15T22:38:35.834Z,94683.49
2019-05-15T22:41:02.400Z,94678.33
2019-05-15T22:43:28.965Z,94668.07
2019-05-15T22:45:55.543Z,94667.24
2019-05-15T22:48:22.082Z,94660.56
2019-05-15T22:50:48.663Z,94663.05
2019-05-15T22:53:17.650Z,94655.10
2019-05-15T22:55:43.942Z,94649.98
2019-05-15T22:58:10.618Z,94647.97
2019-05-15T23:00:39.241Z,94644.51
2019-05-15T23:03:08.226Z,94644.00
2019-05-15T23:05:34.222Z,94641.11
2019-05-15T23:08:00.765Z,94634.87
2019-05-15T23:10:29.267Z,94626.80
2019-05-15T23:12:58.152Z,94628.07
2019-05-15T23:15:24.576Z,94624.42
2019-05-15T23:17:51.427Z,94621.27
2019-05-15T23:20:18.231Z,94619.95
2019-05-15T23:22:44.803Z,94605.94
2019-05-15T23:25:11.544Z,94602.43
2019-05-15T23:27:38.447Z,94600.06
2019-05-15T23:30:05.606Z,94603.24
2019-05-15T23:32:32.148Z,94597.45
2019-05-15T23:34:58.706Z,94599.73
2019-05-15T23:37:25.236Z,94597.09
2019-05-15T23:39:51.782Z,94591.48
2019-05-15T23:42:18.569Z,94584.86
2019-05-15T23:44:45.146Z,94583.18
2019-05-15T23:47:11.694Z,94572.95
2019-05-15T23:49:38.354Z,94567.63
2019-05-15T23:52:04.879Z,94560.18
2019-05-15T23:54:31.419Z,94560.00
2019-05-15T23:56:58.502Z,94554.70
2019-05-15T23:59:25.054Z,94560.49
